sensor_id;sensor_type;location;lat;lon;timestamp;temperature;humidity
24087;DHT22;22893;50.572;7.234;2022-09-21T00:01:28;18.70;81.30
24087;DHT22;22893;50.572;7.234;2022-09-21T00:03:59;18.70;81.30
24087;DHT22;22893;50.572;7.234;2022-09-21T00:06:29;18.70;81.30
24087;DHT22;22893;50.572;7.234;2022-09-21T00:08:57;18.70;81.30
24087;DHT22;22893;50.572;7.234;2022-09-21T00:11:27;18.70;81.40
24087;DHT22;22893;50.572;7.234;2022-09-21T00:13:59;18.60;81.40
24087;DHT22;22893;50.572;7.234;2022-09-21T00:16:28;18.70;81.50
24087;DHT22;22893;50.572;7.234;2022-09-21T00:18:57;18.70;81.40
24087;DHT22;22893;50.572;7.234;2022-09-21T00:21:25;18.70;81.40
24087;DHT22;22893;50.572;7.234;2022-09-21T00:23:53;18.70;81.50
24087;DHT22;22893;50.572;7.234;2022-09-21T00:26:24;18.70;81.50
24087;DHT22;22893;50.572;7.234;2022-09-21T00:28:56;18.70;81.40
24087;DHT22;22893;50.572;7.234;2022-09-21T00:31:25;18.70;81.40
24087;DHT22;22893;50.572;7.234;2022-09-21T00:33:54;18.70;81.40
24087;DHT22;22893;50.572;7.234;2022-09-21T00:36:23;18.70;81.30
24087;DHT22;22893;50.572;7.234;2022-09-21T00:38:54;18.70;81.30
24087;DHT22;22893;50.572;7.234;2022-09-21T00:41:22;18.70;81.30
24087;DHT22;22893;50.572;7.234;2022-09-21T00:44:28;18.60;81.20
24087;DHT22;22893;50.572;7.234;2022-09-21T00:47:00;18.70;81.40
24087;DHT22;22893;50.572;7.234;2022-09-21T00:49:27;18.60;81.00
24087;DHT22;22893;50.572;7.234;2022-09-21T00:51:57;18.60;81.20
24087;DHT22;22893;50.572;7.234;2022-09-21T00:54:29;18.60;81.20
24087;DHT22;22893;50.572;7.234;2022-09-21T00:56:56;18.70;81.20
24087;DHT22;22893;50.572;7.234;2022-09-21T00:59:27;18.60;81.20
24087;DHT22;22893;50.572;7.234;2022-09-21T01:01:56;18.60;81.20
24087;DHT22;22893;50.572;7.234;2022-09-21T01:04:24;18.60;81.20
24087;DHT22;22893;50.572;7.234;2022-09-21T01:06:55;18.60;81.10
24087;DHT22;22893;50.572;7.234;2022-09-21T01:09:23;18.60;81.20
24087;DHT22;22893;50.572;7.234;2022-09-21T01:12:08;18.60;81.00
24087;DHT22;22893;50.572;7.234;2022-09-21T01:15:04;18.60;81.10
24087;DHT22;22893;50.572;7.234;2022-09-21T01:25:43;18.60;81.20
24087;DHT22;22893;50.572;7.234;2022-09-21T01:28:33;18.60;81.10
24087;DHT22;22893;50.572;7.234;2022-09-21T01:30:59;18.60;80.90
24087;DHT22;22893;50.572;7.234;2022-09-21T01:33:35;18.60;81.40
24087;DHT22;22893;50.572;7.234;2022-09-21T01:36:03;18.60;81.30
24087;DHT22;22893;50.572;7.234;2022-09-21T01:38:32;18.60;81.20
24087;DHT22;22893;50.572;7.234;2022-09-21T01:41:02;18.60;81.10
24087;DHT22;22893;50.572;7.234;2022-09-21T01:43:34;18.60;81.20
24087;DHT22;22893;50.572;7.234;2022-09-21T01:46:05;18.60;81.00
24087;DHT22;22893;50.572;7.234;2022-09-21T01:48:36;18.60;80.90
24087;DHT22;22893;50.572;7.234;2022-09-21T01:51:06;18.60;80.80
24087;DHT22;22893;50.572;7.234;2022-09-21T01:53:48;18.60;80.70
24087;DHT22;22893;50.572;7.234;2022-09-21T01:56:24;18.60;80.60
24087;DHT22;22893;50.572;7.234;2022-09-21T02:01:45;18.60;80.60
24087;DHT22;22893;50.572;7.234;2022-09-21T02:04:13;18.60;80.60
24087;DHT22;22893;50.572;7.234;2022-09-21T02:06:44;18.60;80.60
24087;DHT22;22893;50.572;7.234;2022-09-21T02:09:12;18.60;80.80
24087;DHT22;22893;50.572;7.234;2022-09-21T02:11:59;18.60;80.50
24087;DHT22;22893;50.572;7.234;2022-09-21T02:14:28;18.60;80.30
24087;DHT22;22893;50.572;7.234;2022-09-21T02:22:43;18.50;80.40
24087;DHT22;22893;50.572;7.234;2022-09-21T02:25:26;18.60;80.40
24087;DHT22;22893;50.572;7.234;2022-09-21T02:28:06;18.60;80.30
24087;DHT22;22893;50.572;7.234;2022-09-21T02:30:35;18.60;80.40
24087;DHT22;22893;50.572;7.234;2022-09-21T02:33:28;18.50;80.40
24087;DHT22;22893;50.572;7.234;2022-09-21T02:36:10;18.50;80.40
24087;DHT22;22893;50.572;7.234;2022-09-21T02:38:52;18.60;80.60
24087;DHT22;22893;50.572;7.234;2022-09-21T02:44:02;18.50;80.60
24087;DHT22;22893;50.572;7.234;2022-09-21T02:46:41;18.60;80.70
24087;DHT22;22893;50.572;7.234;2022-09-21T02:49:26;18.50;80.40
24087;DHT22;22893;50.572;7.234;2022-09-21T02:51:51;18.50;80.50
24087;DHT22;22893;50.572;7.234;2022-09-21T02:54:21;18.60;80.60
24087;DHT22;22893;50.572;7.234;2022-09-21T02:56:51;18.50;80.60
24087;DHT22;22893;50.572;7.234;2022-09-21T02:59:19;18.50;80.60
24087;DHT22;22893;50.572;7.234;2022-09-21T03:01:50;18.60;80.60
24087;DHT22;22893;50.572;7.234;2022-09-21T03:04:18;18.60;80.60
24087;DHT22;22893;50.572;7.234;2022-09-21T03:06:46;18.60;80.70
24087;DHT22;22893;50.572;7.234;2022-09-21T03:09:14;18.60;80.60
24087;DHT22;22893;50.572;7.234;2022-09-21T03:11:42;18.60;80.80
24087;DHT22;22893;50.572;7.234;2022-09-21T03:14:10;18.50;80.90
24087;DHT22;22893;50.572;7.234;2022-09-21T03:16:37;18.60;80.90
24087;DHT22;22893;50.572;7.234;2022-09-21T03:19:05;18.60;80.90
24087;DHT22;22893;50.572;7.234;2022-09-21T03:21:32;18.60;81.00
24087;DHT22;22893;50.572;7.234;2022-09-21T03:24:00;18.60;80.90
24087;DHT22;22893;50.572;7.234;2022-09-21T03:26:28;18.40;77.90
24087;DHT22;22893;50.572;7.234;2022-09-21T03:28:55;18.30;78.40
24087;DHT22;22893;50.572;7.234;2022-09-21T03:31:23;18.20;78.90
24087;DHT22;22893;50.572;7.234;2022-09-21T03:33:50;18.20;80.50
24087;DHT22;22893;50.572;7.234;2022-09-21T03:36:18;18.20;80.50
24087;DHT22;22893;50.572;7.234;2022-09-21T03:38:46;18.30;80.80
24087;DHT22;22893;50.572;7.234;2022-09-21T03:41:14;18.30;80.20
24087;DHT22;22893;50.572;7.234;2022-09-21T03:43:41;18.30;79.90
24087;DHT22;22893;50.572;7.234;2022-09-21T03:46:09;18.30;80.10
24087;DHT22;22893;50.572;7.234;2022-09-21T03:48:37;18.30;79.70
24087;DHT22;22893;50.572;7.234;2022-09-21T03:51:06;18.30;79.70
24087;DHT22;22893;50.572;7.234;2022-09-21T03:53:33;18.30;77.80
24087;DHT22;22893;50.572;7.234;2022-09-21T03:56:01;18.20;78.00
24087;DHT22;22893;50.572;7.234;2022-09-21T03:58:28;18.10;78.40
24087;DHT22;22893;50.572;7.234;2022-09-21T04:01:00;18.10;78.70
24087;DHT22;22893;50.572;7.234;2022-09-21T04:03:29;18.00;78.70
24087;DHT22;22893;50.572;7.234;2022-09-21T04:05:56;18.00;78.90
24087;DHT22;22893;50.572;7.234;2022-09-21T04:08:24;18.00;79.10
24087;DHT22;22893;50.572;7.234;2022-09-21T04:10:52;18.00;80.20
24087;DHT22;22893;50.572;7.234;2022-09-21T04:13:21;18.00;81.40
24087;DHT22;22893;50.572;7.234;2022-09-21T04:15:50;18.10;81.30
24087;DHT22;22893;50.572;7.234;2022-09-21T04:18:18;18.10;81.30
24087;DHT22;22893;50.572;7.234;2022-09-21T04:20:46;18.20;81.00
24087;DHT22;22893;50.572;7.234;2022-09-21T04:23:13;18.20;81.00
24087;DHT22;22893;50.572;7.234;2022-09-21T04:25:41;18.20;81.30
24087;DHT22;22893;50.572;7.234;2022-09-21T04:28:10;18.20;81.20
24087;DHT22;22893;50.572;7.234;2022-09-21T04:30:38;18.20;81.60
24087;DHT22;22893;50.572;7.234;2022-09-21T04:33:06;18.20;81.20
24087;DHT22;22893;50.572;7.234;2022-09-21T04:35:33;18.30;81.60
24087;DHT22;22893;50.572;7.234;2022-09-21T04:38:01;18.30;81.80
24087;DHT22;22893;50.572;7.234;2022-09-21T04:40:28;18.30;81.80
24087;DHT22;22893;50.572;7.234;2022-09-21T04:42:56;18.30;81.30
24087;DHT22;22893;50.572;7.234;2022-09-21T04:45:24;18.30;82.70
24087;DHT22;22893;50.572;7.234;2022-09-21T04:47:51;18.30;81.80
24087;DHT22;22893;50.572;7.234;2022-09-21T04:50:19;18.30;81.80
24087;DHT22;22893;50.572;7.234;2022-09-21T04:52:47;18.40;81.80
24087;DHT22;22893;50.572;7.234;2022-09-21T04:55:14;18.30;81.50
24087;DHT22;22893;50.572;7.234;2022-09-21T04:57:43;18.40;81.20
24087;DHT22;22893;50.572;7.234;2022-09-21T05:00:11;18.40;81.20
24087;DHT22;22893;50.572;7.234;2022-09-21T05:02:38;18.40;81.00
24087;DHT22;22893;50.572;7.234;2022-09-21T05:05:06;18.40;81.00
24087;DHT22;22893;50.572;7.234;2022-09-21T05:07:34;18.40;81.10
24087;DHT22;22893;50.572;7.234;2022-09-21T05:10:01;18.40;80.80
24087;DHT22;22893;50.572;7.234;2022-09-21T05:12:31;18.40;80.70
24087;DHT22;22893;50.572;7.234;2022-09-21T05:14:59;18.40;80.90
24087;DHT22;22893;50.572;7.234;2022-09-21T05:17:28;18.30;80.80
24087;DHT22;22893;50.572;7.234;2022-09-21T05:19:55;18.40;80.90
24087;DHT22;22893;50.572;7.234;2022-09-21T05:22:23;18.40;80.80
24087;DHT22;22893;50.572;7.234;2022-09-21T05:24:50;18.40;80.60
24087;DHT22;22893;50.572;7.234;2022-09-21T05:27:18;18.40;80.70
24087;DHT22;22893;50.572;7.234;2022-09-21T05:29:46;18.30;80.20
24087;DHT22;22893;50.572;7.234;2022-09-21T05:32:26;18.30;80.00
24087;DHT22;22893;50.572;7.234;2022-09-21T05:37:56;18.30;80.00
24087;DHT22;22893;50.572;7.234;2022-09-21T05:40:22;18.30;79.50
24087;DHT22;22893;50.572;7.234;2022-09-21T05:42:50;18.30;79.70
24087;DHT22;22893;50.572;7.234;2022-09-21T05:45:18;18.30;79.70
24087;DHT22;22893;50.572;7.234;2022-09-21T05:48:15;18.30;79.60
24087;DHT22;22893;50.572;7.234;2022-09-21T05:51:00;18.30;79.60
24087;DHT22;22893;50.572;7.234;2022-09-21T05:56:47;18.30;80.30
24087;DHT22;22893;50.572;7.234;2022-09-21T06:03:19;18.30;79.90
24087;DHT22;22893;50.572;7.234;2022-09-21T06:04:56;18.30;80.80
24087;DHT22;22893;50.572;7.234;2022-09-21T06:07:24;18.30;79.50
24087;DHT22;22893;50.572;7.234;2022-09-21T06:09:52;18.30;80.30
24087;DHT22;22893;50.572;7.234;2022-09-21T06:12:19;18.30;79.40
24087;DHT22;22893;50.572;7.234;2022-09-21T06:14:47;18.20;79.10
24087;DHT22;22893;50.572;7.234;2022-09-21T06:17:14;18.20;79.10
24087;DHT22;22893;50.572;7.234;2022-09-21T06:19:42;18.30;79.40
24087;DHT22;22893;50.572;7.234;2022-09-21T06:22:09;18.30;79.60
24087;DHT22;22893;50.572;7.234;2022-09-21T06:24:37;18.30;80.00
24087;DHT22;22893;50.572;7.234;2022-09-21T06:27:06;18.30;80.20
24087;DHT22;22893;50.572;7.234;2022-09-21T06:29:33;18.30;80.10
24087;DHT22;22893;50.572;7.234;2022-09-21T06:32:02;18.30;80.00
24087;DHT22;22893;50.572;7.234;2022-09-21T06:34:30;18.30;80.10
24087;DHT22;22893;50.572;7.234;2022-09-21T06:36:57;18.30;80.00
24087;DHT22;22893;50.572;7.234;2022-09-21T06:39:25;18.30;80.00
24087;DHT22;22893;50.572;7.234;2022-09-21T06:41:52;18.30;79.80
24087;DHT22;22893;50.572;7.234;2022-09-21T06:44:20;18.30;80.00
24087;DHT22;22893;50.572;7.234;2022-09-21T06:46:48;18.30;79.80
24087;DHT22;22893;50.572;7.234;2022-09-21T06:49:15;18.20;77.20
24087;DHT22;22893;50.572;7.234;2022-09-21T06:51:43;18.10;77.10
24087;DHT22;22893;50.572;7.234;2022-09-21T06:54:10;18.00;77.80
24087;DHT22;22893;50.572;7.234;2022-09-21T06:56:38;18.10;78.60
24087;DHT22;22893;50.572;7.234;2022-09-21T06:59:07;18.00;78.80
24087;DHT22;22893;50.572;7.234;2022-09-21T07:01:35;18.00;79.10
24087;DHT22;22893;50.572;7.234;2022-09-21T07:04:02;18.00;79.40
24087;DHT22;22893;50.572;7.234;2022-09-21T07:06:30;18.00;79.70
24087;DHT22;22893;50.572;7.234;2022-09-21T07:08:57;18.00;79.70
24087;DHT22;22893;50.572;7.234;2022-09-21T07:11:26;18.00;80.10
24087;DHT22;22893;50.572;7.234;2022-09-21T07:13:54;18.00;80.20
24087;DHT22;22893;50.572;7.234;2022-09-21T07:16:23;18.00;80.50
24087;DHT22;22893;50.572;7.234;2022-09-21T07:18:51;17.90;80.60
24087;DHT22;22893;50.572;7.234;2022-09-21T07:21:18;18.00;80.50
24087;DHT22;22893;50.572;7.234;2022-09-21T07:23:46;18.00;80.50
24087;DHT22;22893;50.572;7.234;2022-09-21T07:26:13;18.00;80.70
24087;DHT22;22893;50.572;7.234;2022-09-21T07:28:41;17.90;80.70
24087;DHT22;22893;50.572;7.234;2022-09-21T07:31:13;17.90;80.80
24087;DHT22;22893;50.572;7.234;2022-09-21T07:33:42;17.90;80.90
24087;DHT22;22893;50.572;7.234;2022-09-21T07:36:12;17.90;81.00
24087;DHT22;22893;50.572;7.234;2022-09-21T07:38:41;18.00;81.10
24087;DHT22;22893;50.572;7.234;2022-09-21T07:41:11;17.90;81.10
24087;DHT22;22893;50.572;7.234;2022-09-21T07:43:40;17.90;81.20
24087;DHT22;22893;50.572;7.234;2022-09-21T07:46:10;17.90;81.20
24087;DHT22;22893;50.572;7.234;2022-09-21T07:48:39;17.90;81.30
24087;DHT22;22893;50.572;7.234;2022-09-21T07:53:55;17.90;81.40
24087;DHT22;22893;50.572;7.234;2022-09-21T07:56:24;17.90;81.40
24087;DHT22;22893;50.572;7.234;2022-09-21T07:58:52;17.90;81.50
24087;DHT22;22893;50.572;7.234;2022-09-21T08:01:40;17.90;81.60
24087;DHT22;22893;50.572;7.234;2022-09-21T08:04:10;17.90;81.60
24087;DHT22;22893;50.572;7.234;2022-09-21T08:06:38;17.90;81.60
24087;DHT22;22893;50.572;7.234;2022-09-21T08:09:08;17.90;81.70
24087;DHT22;22893;50.572;7.234;2022-09-21T08:11:35;17.90;81.70
24087;DHT22;22893;50.572;7.234;2022-09-21T08:14:09;17.90;81.80
24087;DHT22;22893;50.572;7.234;2022-09-21T08:16:39;17.90;81.90
24087;DHT22;22893;50.572;7.234;2022-09-21T08:19:06;17.90;81.80
24087;DHT22;22893;50.572;7.234;2022-09-21T08:21:34;18.00;81.90
24087;DHT22;22893;50.572;7.234;2022-09-21T08:24:01;17.90;82.00
24087;DHT22;22893;50.572;7.234;2022-09-21T08:26:29;17.90;82.00
24087;DHT22;22893;50.572;7.234;2022-09-21T08:28:57;17.90;82.00
24087;DHT22;22893;50.572;7.234;2022-09-21T08:31:25;17.90;82.10
24087;DHT22;22893;50.572;7.234;2022-09-21T08:33:54;17.90;82.10
24087;DHT22;22893;50.572;7.234;2022-09-21T08:36:23;17.90;82.20
24087;DHT22;22893;50.572;7.234;2022-09-21T08:38:51;17.90;83.10
24087;DHT22;22893;50.572;7.234;2022-09-21T08:41:23;17.90;82.30
24087;DHT22;22893;50.572;7.234;2022-09-21T08:43:54;17.90;82.30
24087;DHT22;22893;50.572;7.234;2022-09-21T08:46:24;17.90;82.30
24087;DHT22;22893;50.572;7.234;2022-09-21T08:49:01;17.90;82.40
24087;DHT22;22893;50.572;7.234;2022-09-21T08:51:31;17.90;82.40
24087;DHT22;22893;50.572;7.234;2022-09-21T08:56:48;17.90;82.40
24087;DHT22;22893;50.572;7.234;2022-09-21T08:59:16;17.90;82.50
24087;DHT22;22893;50.572;7.234;2022-09-21T09:04:20;18.00;81.80
24087;DHT22;22893;50.572;7.234;2022-09-21T09:15:05;18.00;81.80
24087;DHT22;22893;50.572;7.234;2022-09-21T09:23:33;18.00;81.90
24087;DHT22;22893;50.572;7.234;2022-09-21T09:26:05;18.00;81.90
24087;DHT22;22893;50.572;7.234;2022-09-21T09:28:54;18.00;81.90
24087;DHT22;22893;50.572;7.234;2022-09-21T09:31:29;18.00;82.00
24087;DHT22;22893;50.572;7.234;2022-09-21T09:33:58;18.00;82.00
24087;DHT22;22893;50.572;7.234;2022-09-21T09:36:28;18.00;82.00
24087;DHT22;22893;50.572;7.234;2022-09-21T09:38:59;18.00;82.00
24087;DHT22;22893;50.572;7.234;2022-09-21T09:41:43;18.00;82.00
24087;DHT22;22893;50.572;7.234;2022-09-21T09:47:15;18.00;82.10
24087;DHT22;22893;50.572;7.234;2022-09-21T09:50:03;18.00;82.10
24087;DHT22;22893;50.572;7.234;2022-09-21T09:52:30;18.00;82.20
24087;DHT22;22893;50.572;7.234;2022-09-21T09:55:10;18.10;82.10
24087;DHT22;22893;50.572;7.234;2022-09-21T09:57:37;18.00;82.10
24087;DHT22;22893;50.572;7.234;2022-09-21T10:00:06;18.00;82.10
24087;DHT22;22893;50.572;7.234;2022-09-21T10:02:50;18.00;82.10
24087;DHT22;22893;50.572;7.234;2022-09-21T10:05:21;18.00;82.10
24087;DHT22;22893;50.572;7.234;2022-09-21T10:07:49;18.00;82.20
24087;DHT22;22893;50.572;7.234;2022-09-21T10:10:23;18.00;81.80
24087;DHT22;22893;50.572;7.234;2022-09-21T10:12:51;18.00;82.30
24087;DHT22;22893;50.572;7.234;2022-09-21T10:15:22;18.00;82.30
24087;DHT22;22893;50.572;7.234;2022-09-21T10:18:33;18.00;82.30
24087;DHT22;22893;50.572;7.234;2022-09-21T10:20:26;18.00;82.30
24087;DHT22;22893;50.572;7.234;2022-09-21T10:22:58;18.00;83.20
24087;DHT22;22893;50.572;7.234;2022-09-21T10:25:27;18.00;82.40
24087;DHT22;22893;50.572;7.234;2022-09-21T10:27:55;18.10;82.60
24087;DHT22;22893;50.572;7.234;2022-09-21T10:30:34;18.00;82.50
24087;DHT22;22893;50.572;7.234;2022-09-21T10:33:16;18.00;82.40
24087;DHT22;22893;50.572;7.234;2022-09-21T10:35:37;18.00;82.40
24087;DHT22;22893;50.572;7.234;2022-09-21T10:38:17;18.00;82.40
24087;DHT22;22893;50.572;7.234;2022-09-21T10:41:03;18.00;82.50
24087;DHT22;22893;50.572;7.234;2022-09-21T10:43:33;18.00;82.50
24087;DHT22;22893;50.572;7.234;2022-09-21T10:46:03;18.10;82.60
24087;DHT22;22893;50.572;7.234;2022-09-21T10:48:31;18.10;82.50
24087;DHT22;22893;50.572;7.234;2022-09-21T10:50:58;18.10;82.50
24087;DHT22;22893;50.572;7.234;2022-09-21T10:53:31;18.10;82.60
24087;DHT22;22893;50.572;7.234;2022-09-21T10:56:13;18.10;82.60
24087;DHT22;22893;50.572;7.234;2022-09-21T10:58:36;18.10;82.60
24087;DHT22;22893;50.572;7.234;2022-09-21T11:01:21;18.20;82.60
24087;DHT22;22893;50.572;7.234;2022-09-21T11:03:57;18.20;82.70
24087;DHT22;22893;50.572;7.234;2022-09-21T11:06:31;18.20;82.70
24087;DHT22;22893;50.572;7.234;2022-09-21T11:09:13;18.20;82.70
24087;DHT22;22893;50.572;7.234;2022-09-21T11:11:52;18.20;82.70
24087;DHT22;22893;50.572;7.234;2022-09-21T11:16:58;18.20;82.80
24087;DHT22;22893;50.572;7.234;2022-09-21T11:19:51;18.20;82.90
24087;DHT22;22893;50.572;7.234;2022-09-21T11:22:31;18.20;82.90
24087;DHT22;22893;50.572;7.234;2022-09-21T11:27:48;18.30;83.50
24087;DHT22;22893;50.572;7.234;2022-09-21T11:30:17;18.30;82.90
24087;DHT22;22893;50.572;7.234;2022-09-21T11:35:46;18.30;83.00
24087;DHT22;22893;50.572;7.234;2022-09-21T11:38:51;18.30;83.60
24087;DHT22;22893;50.572;7.234;2022-09-21T11:41:19;18.30;83.60
24087;DHT22;22893;50.572;7.234;2022-09-21T11:44:00;18.40;83.60
24087;DHT22;22893;50.572;7.234;2022-09-21T11:46:48;18.40;84.10
24087;DHT22;22893;50.572;7.234;2022-09-21T11:52:05;18.40;83.60
24087;DHT22;22893;50.572;7.234;2022-09-21T11:55:04;18.50;83.90
24087;DHT22;22893;50.572;7.234;2022-09-21T12:00:29;18.50;83.70
24087;DHT22;22893;50.572;7.234;2022-09-21T12:03:22;18.50;83.70
24087;DHT22;22893;50.572;7.234;2022-09-21T12:06:02;18.50;83.60
24087;DHT22;22893;50.572;7.234;2022-09-21T12:09:04;18.60;83.70
24087;DHT22;22893;50.572;7.234;2022-09-21T12:11:42;18.60;83.90
24087;DHT22;22893;50.572;7.234;2022-09-21T12:17:22;18.60;84.70
24087;DHT22;22893;50.572;7.234;2022-09-21T12:19:53;18.60;83.50
24087;DHT22;22893;50.572;7.234;2022-09-21T12:22:25;18.60;83.10
24087;DHT22;22893;50.572;7.234;2022-09-21T12:25:04;18.70;83.90
24087;DHT22;22893;50.572;7.234;2022-09-21T12:27:38;18.70;83.60
24087;DHT22;22893;50.572;7.234;2022-09-21T12:30:18;18.70;84.00
24087;DHT22;22893;50.572;7.234;2022-09-21T12:35:47;18.70;84.00
24087;DHT22;22893;50.572;7.234;2022-09-21T12:38:29;18.70;83.60
24087;DHT22;22893;50.572;7.234;2022-09-21T12:44:03;18.70;83.70
24087;DHT22;22893;50.572;7.234;2022-09-21T12:46:35;18.70;83.20
24087;DHT22;22893;50.572;7.234;2022-09-21T12:49:14;18.70;83.50
24087;DHT22;22893;50.572;7.234;2022-09-21T12:51:42;18.80;83.80
24087;DHT22;22893;50.572;7.234;2022-09-21T12:54:24;18.70;83.70
24087;DHT22;22893;50.572;7.234;2022-09-21T12:56:57;18.80;83.50
24087;DHT22;22893;50.572;7.234;2022-09-21T12:59:42;18.70;83.40
24087;DHT22;22893;50.572;7.234;2022-09-21T13:08:13;18.80;83.40
24087;DHT22;22893;50.572;7.234;2022-09-21T13:10:58;18.80;83.30
24087;DHT22;22893;50.572;7.234;2022-09-21T13:13:28;18.80;83.60
24087;DHT22;22893;50.572;7.234;2022-09-21T13:15:56;18.80;83.50
24087;DHT22;22893;50.572;7.234;2022-09-21T13:18:40;18.80;83.30
24087;DHT22;22893;50.572;7.234;2022-09-21T13:21:19;18.80;83.10
24087;DHT22;22893;50.572;7.234;2022-09-21T13:24:03;18.80;83.10
24087;DHT22;22893;50.572;7.234;2022-09-21T13:26:36;18.80;82.80
24087;DHT22;22893;50.572;7.234;2022-09-21T13:29:24;18.80;82.90
24087;DHT22;22893;50.572;7.234;2022-09-21T13:31:54;18.80;82.60
24087;DHT22;22893;50.572;7.234;2022-09-21T13:34:31;18.80;82.40
24087;DHT22;22893;50.572;7.234;2022-09-21T13:47:46;18.80;81.40
24087;DHT22;22893;50.572;7.234;2022-09-21T13:50:24;18.80;80.20
24087;DHT22;22893;50.572;7.234;2022-09-21T13:52:54;18.80;79.50
24087;DHT22;22893;50.572;7.234;2022-09-21T13:55:34;18.80;79.00
24087;DHT22;22893;50.572;7.234;2022-09-21T13:58:22;18.80;78.20
24087;DHT22;22893;50.572;7.234;2022-09-21T14:01:01;18.80;77.10
24087;DHT22;22893;50.572;7.234;2022-09-21T14:03:47;18.70;77.60
24087;DHT22;22893;50.572;7.234;2022-09-21T14:06:27;18.70;77.10
24087;DHT22;22893;50.572;7.234;2022-09-21T14:08:59;18.70;77.30
24087;DHT22;22893;50.572;7.234;2022-09-21T14:11:41;18.70;76.40
24087;DHT22;22893;50.572;7.234;2022-09-21T14:14:21;18.80;76.30
24087;DHT22;22893;50.572;7.234;2022-09-21T14:16:48;18.80;77.00
24087;DHT22;22893;50.572;7.234;2022-09-21T14:24:41;18.80;76.00
24087;DHT22;22893;50.572;7.234;2022-09-21T14:30:20;18.80;75.90
24087;DHT22;22893;50.572;7.234;2022-09-21T14:35:36;18.80;75.90
24087;DHT22;22893;50.572;7.234;2022-09-21T14:38:10;18.80;75.70
24087;DHT22;22893;50.572;7.234;2022-09-21T14:40:38;18.80;75.60
24087;DHT22;22893;50.572;7.234;2022-09-21T14:43:13;18.80;76.40
24087;DHT22;22893;50.572;7.234;2022-09-21T14:48:46;18.80;76.60
24087;DHT22;22893;50.572;7.234;2022-09-21T14:59:45;18.70;77.10
24087;DHT22;22893;50.572;7.234;2022-09-21T15:02:17;18.70;77.00
24087;DHT22;22893;50.572;7.234;2022-09-21T15:04:56;18.60;77.20
24087;DHT22;22893;50.572;7.234;2022-09-21T15:07:38;18.60;77.40
24087;DHT22;22893;50.572;7.234;2022-09-21T15:10:33;18.60;77.50
24087;DHT22;22893;50.572;7.234;2022-09-21T15:16:29;18.60;77.70
24087;DHT22;22893;50.572;7.234;2022-09-21T15:21:47;18.60;77.70
24087;DHT22;22893;50.572;7.234;2022-09-21T15:24:27;18.50;77.60
24087;DHT22;22893;50.572;7.234;2022-09-21T15:27:11;18.50;77.20
24087;DHT22;22893;50.572;7.234;2022-09-21T15:29:45;18.50;77.40
24087;DHT22;22893;50.572;7.234;2022-09-21T15:35:05;18.60;77.20
24087;DHT22;22893;50.572;7.234;2022-09-21T15:37:36;18.50;77.00
24087;DHT22;22893;50.572;7.234;2022-09-21T15:40:29;18.60;77.20
24087;DHT22;22893;50.572;7.234;2022-09-21T15:42:38;18.50;77.10
24087;DHT22;22893;50.572;7.234;2022-09-21T15:45:17;18.50;77.20
24087;DHT22;22893;50.572;7.234;2022-09-21T15:47:45;18.50;77.10
24087;DHT22;22893;50.572;7.234;2022-09-21T15:50:14;18.50;77.40
24087;DHT22;22893;50.572;7.234;2022-09-21T15:52:45;18.50;77.30
24087;DHT22;22893;50.572;7.234;2022-09-21T15:55:18;18.50;77.60
24087;DHT22;22893;50.572;7.234;2022-09-21T15:57:53;18.50;77.60
24087;DHT22;22893;50.572;7.234;2022-09-21T16:00:26;18.50;77.70
24087;DHT22;22893;50.572;7.234;2022-09-21T16:03:01;18.50;77.80
24087;DHT22;22893;50.572;7.234;2022-09-21T16:05:55;18.50;78.10
24087;DHT22;22893;50.572;7.234;2022-09-21T16:08:28;18.60;78.00
24087;DHT22;22893;50.572;7.234;2022-09-21T16:10:40;18.60;78.00
24087;DHT22;22893;50.572;7.234;2022-09-21T16:13:22;18.60;78.00
24087;DHT22;22893;50.572;7.234;2022-09-21T16:16:14;18.70;78.00
24087;DHT22;22893;50.572;7.234;2022-09-21T16:18:47;18.70;78.10
24087;DHT22;22893;50.572;7.234;2022-09-21T16:21:31;18.70;78.00
24087;DHT22;22893;50.572;7.234;2022-09-21T16:24:20;18.70;78.00
24087;DHT22;22893;50.572;7.234;2022-09-21T16:27:01;18.70;78.00
24087;DHT22;22893;50.572;7.234;2022-09-21T16:29:40;18.70;78.00
24087;DHT22;22893;50.572;7.234;2022-09-21T16:32:32;18.70;77.90
24087;DHT22;22893;50.572;7.234;2022-09-21T16:37:53;18.70;77.80
24087;DHT22;22893;50.572;7.234;2022-09-21T16:40:26;18.70;77.60
24087;DHT22;22893;50.572;7.234;2022-09-21T16:42:54;18.70;77.50
24087;DHT22;22893;50.572;7.234;2022-09-21T16:45:24;18.70;77.30
24087;DHT22;22893;50.572;7.234;2022-09-21T16:47:52;18.70;77.40
24087;DHT22;22893;50.572;7.234;2022-09-21T16:50:20;18.80;77.50
24087;DHT22;22893;50.572;7.234;2022-09-21T16:52:47;18.70;77.30
24087;DHT22;22893;50.572;7.234;2022-09-21T16:55:19;18.70;77.50
24087;DHT22;22893;50.572;7.234;2022-09-21T16:57:47;18.80;77.80
24087;DHT22;22893;50.572;7.234;2022-09-21T17:00:16;18.80;77.90
24087;DHT22;22893;50.572;7.234;2022-09-21T17:02:47;18.70;78.00
24087;DHT22;22893;50.572;7.234;2022-09-21T17:05:15;18.70;78.10
24087;DHT22;22893;50.572;7.234;2022-09-21T17:07:54;18.70;78.20
24087;DHT22;22893;50.572;7.234;2022-09-21T17:10:29;18.70;78.20
24087;DHT22;22893;50.572;7.234;2022-09-21T17:12:55;18.80;78.30
24087;DHT22;22893;50.572;7.234;2022-09-21T17:15:23;18.80;78.80
24087;DHT22;22893;50.572;7.234;2022-09-21T17:17:51;18.80;79.00
24087;DHT22;22893;50.572;7.234;2022-09-21T17:20:32;18.80;79.50
24087;DHT22;22893;50.572;7.234;2022-09-21T17:22:59;18.80;79.40
24087;DHT22;22893;50.572;7.234;2022-09-21T17:25:29;18.80;79.30
24087;DHT22;22893;50.572;7.234;2022-09-21T17:27:59;18.80;79.80
24087;DHT22;22893;50.572;7.234;2022-09-21T17:30:27;18.80;79.90
24087;DHT22;22893;50.572;7.234;2022-09-21T17:32:55;18.80;79.70
24087;DHT22;22893;50.572;7.234;2022-09-21T17:35:40;18.80;79.80
24087;DHT22;22893;50.572;7.234;2022-09-21T17:38:08;18.80;79.90
24087;DHT22;22893;50.572;7.234;2022-09-21T17:40:36;18.80;79.80
24087;DHT22;22893;50.572;7.234;2022-09-21T17:46:02;18.80;79.80
24087;DHT22;22893;50.572;7.234;2022-09-21T17:48:26;18.80;79.70
24087;DHT22;22893;50.572;7.234;2022-09-21T17:50:54;18.80;79.70
24087;DHT22;22893;50.572;7.234;2022-09-21T17:53:22;18.80;79.70
24087;DHT22;22893;50.572;7.234;2022-09-21T17:59:02;18.80;79.70
24087;DHT22;22893;50.572;7.234;2022-09-21T18:01:40;18.80;79.70
24087;DHT22;22893;50.572;7.234;2022-09-21T18:04:09;18.80;79.60
24087;DHT22;22893;50.572;7.234;2022-09-21T18:06:37;18.80;79.50
24087;DHT22;22893;50.572;7.234;2022-09-21T18:09:05;18.80;79.60
24087;DHT22;22893;50.572;7.234;2022-09-21T18:11:49;18.80;79.60
24087;DHT22;22893;50.572;7.234;2022-09-21T18:22:10;18.80;79.50
24087;DHT22;22893;50.572;7.234;2022-09-21T18:24:32;18.80;79.50